sensor_id;sensor_type;location;lat;lon;timestamp;temperature;humidity
15947;DHT22;8072;52.554;7.966;2022-11-20T00:01:09;-2.50;99.90
15947;DHT22;8072;52.554;7.966;2022-11-20T00:03:36;-2.40;99.90
15947;DHT22;8072;52.554;7.966;2022-11-20T00:06:04;-2.40;99.90
15947;DHT22;8072;52.554;7.966;2022-11-20T00:08:30;-2.40;99.90
15947;DHT22;8072;52.554;7.966;2022-11-20T00:10:56;-2.30;99.90
15947;DHT22;8072;52.554;7.966;2022-11-20T00:13:22;-2.30;99.90
15947;DHT22;8072;52.554;7.966;2022-11-20T00:15:48;-2.30;99.90
15947;DHT22;8072;52.554;7.966;2022-11-20T00:18:14;-2.30;99.90
15947;DHT22;8072;52.554;7.966;2022-11-20T00:20:39;-2.20;99.90
15947;DHT22;8072;52.554;7.966;2022-11-20T00:23:05;-2.20;99.90
15947;DHT22;8072;52.554;7.966;2022-11-20T00:25:34;-2.10;99.90
15947;DHT22;8072;52.554;7.966;2022-11-20T00:28:01;-2.10;99.90
15947;DHT22;8072;52.554;7.966;2022-11-20T00:30:26;-2.10;99.90
15947;DHT22;8072;52.554;7.966;2022-11-20T00:32:52;-2.10;99.90
15947;DHT22;8072;52.554;7.966;2022-11-20T00:35:18;-2.10;99.90
15947;DHT22;8072;52.554;7.966;2022-11-20T00:37:44;-2.10;99.90
15947;DHT22;8072;52.554;7.966;2022-11-20T00:40:10;-2.00;99.90
15947;DHT22;8072;52.554;7.966;2022-11-20T00:42:35;-2.00;99.90
15947;DHT22;8072;52.554;7.966;2022-11-20T00:45:01;-2.00;99.90
15947;DHT22;8072;52.554;7.966;2022-11-20T00:47:27;-2.00;99.90
15947;DHT22;8072;52.554;7.966;2022-11-20T00:49:53;-2.00;99.90
15947;DHT22;8072;52.554;7.966;2022-11-20T00:52:18;-2.00;99.90
15947;DHT22;8072;52.554;7.966;2022-11-20T00:54:44;-2.10;99.90
15947;DHT22;8072;52.554;7.966;2022-11-20T00:57:10;-2.00;99.90
15947;DHT22;8072;52.554;7.966;2022-11-20T00:59:36;-2.00;99.90
15947;DHT22;8072;52.554;7.966;2022-11-20T01:02:02;-2.00;99.90
15947;DHT22;8072;52.554;7.966;2022-11-20T01:04:28;-2.00;99.90
15947;DHT22;8072;52.554;7.966;2022-11-20T01:06:54;-2.00;99.90
15947;DHT22;8072;52.554;7.966;2022-11-20T01:09:20;-2.00;99.90
15947;DHT22;8072;52.554;7.966;2022-11-20T01:11:46;-2.00;99.90
15947;DHT22;8072;52.554;7.966;2022-11-20T01:14:14;-2.00;99.90
15947;DHT22;8072;52.554;7.966;2022-11-20T01:16:45;-1.90;99.90
15947;DHT22;8072;52.554;7.966;2022-11-20T01:19:18;-1.90;99.90
15947;DHT22;8072;52.554;7.966;2022-11-20T01:21:47;-1.80;99.90
15947;DHT22;8072;52.554;7.966;2022-11-20T01:24:14;-1.70;99.90
15947;DHT22;8072;52.554;7.966;2022-11-20T01:26:42;-1.70;99.90
15947;DHT22;8072;52.554;7.966;2022-11-20T01:29:14;-1.70;99.90
15947;DHT22;8072;52.554;7.966;2022-11-20T01:31:41;-1.70;99.90
15947;DHT22;8072;52.554;7.966;2022-11-20T01:34:11;-1.80;99.90
15947;DHT22;8072;52.554;7.966;2022-11-20T01:36:38;-1.80;99.90
15947;DHT22;8072;52.554;7.966;2022-11-20T01:39:12;-1.80;99.90
15947;DHT22;8072;52.554;7.966;2022-11-20T01:41:39;-1.80;99.90
15947;DHT22;8072;52.554;7.966;2022-11-20T01:44:50;-1.80;99.90
15947;DHT22;8072;52.554;7.966;2022-11-20T01:47:35;-1.90;99.90
15947;DHT22;8072;52.554;7.966;2022-11-20T01:50:13;-1.90;99.90
15947;DHT22;8072;52.554;7.966;2022-11-20T01:52:44;-1.80;99.90
15947;DHT22;8072;52.554;7.966;2022-11-20T01:55:19;-1.80;99.90
15947;DHT22;8072;52.554;7.966;2022-11-20T01:57:45;-1.80;99.90
15947;DHT22;8072;52.554;7.966;2022-11-20T02:00:14;-1.80;99.90
15947;DHT22;8072;52.554;7.966;2022-11-20T02:03:05;-1.70;99.90
15947;DHT22;8072;52.554;7.966;2022-11-20T02:08:23;-1.70;99.90
15947;DHT22;8072;52.554;7.966;2022-11-20T02:10:49;-1.70;99.90
15947;DHT22;8072;52.554;7.966;2022-11-20T02:13:15;-1.80;99.90
15947;DHT22;8072;52.554;7.966;2022-11-20T02:16:00;-1.70;99.90
15947;DHT22;8072;52.554;7.966;2022-11-20T02:18:26;-1.70;99.90
15947;DHT22;8072;52.554;7.966;2022-11-20T02:21:08;-1.70;99.90
15947;DHT22;8072;52.554;7.966;2022-11-20T02:23:56;-1.70;99.90
15947;DHT22;8072;52.554;7.966;2022-11-20T02:26:23;-1.70;99.90
15947;DHT22;8072;52.554;7.966;2022-11-20T02:28:49;-1.70;99.90
15947;DHT22;8072;52.554;7.966;2022-11-20T02:31:16;-1.70;99.90
15947;DHT22;8072;52.554;7.966;2022-11-20T02:33:42;-1.70;99.90
15947;DHT22;8072;52.554;7.966;2022-11-20T02:36:11;-1.60;99.90
15947;DHT22;8072;52.554;7.966;2022-11-20T02:38:38;-1.60;99.90
15947;DHT22;8072;52.554;7.966;2022-11-20T02:41:04;-1.60;99.90
15947;DHT22;8072;52.554;7.966;2022-11-20T02:43:29;-1.60;99.90
15947;DHT22;8072;52.554;7.966;2022-11-20T02:45:55;-1.70;99.90
15947;DHT22;8072;52.554;7.966;2022-11-20T02:48:21;-1.70;99.90
15947;DHT22;8072;52.554;7.966;2022-11-20T02:50:47;-1.70;99.90
15947;DHT22;8072;52.554;7.966;2022-11-20T02:53:12;-1.70;99.90
15947;DHT22;8072;52.554;7.966;2022-11-20T02:55:38;-1.70;99.90
15947;DHT22;8072;52.554;7.966;2022-11-20T02:58:04;-1.70;99.90
15947;DHT22;8072;52.554;7.966;2022-11-20T03:00:30;-1.70;99.90
15947;DHT22;8072;52.554;7.966;2022-11-20T03:02:56;-1.70;99.90
15947;DHT22;8072;52.554;7.966;2022-11-20T03:05:22;-1.70;99.90
15947;DHT22;8072;52.554;7.966;2022-11-20T03:07:48;-1.70;99.90
15947;DHT22;8072;52.554;7.966;2022-11-20T03:10:14;-1.70;99.90
15947;DHT22;8072;52.554;7.966;2022-11-20T03:12:40;-1.70;99.90
15947;DHT22;8072;52.554;7.966;2022-11-20T03:15:06;-1.70;99.90
15947;DHT22;8072;52.554;7.966;2022-11-20T03:17:32;-1.70;99.90
15947;DHT22;8072;52.554;7.966;2022-11-20T03:19:57;-1.60;99.90
15947;DHT22;8072;52.554;7.966;2022-11-20T03:22:23;-1.60;99.90
15947;DHT22;8072;52.554;7.966;2022-11-20T03:24:49;-1.60;99.90
15947;DHT22;8072;52.554;7.966;2022-11-20T03:27:15;-1.60;99.90
15947;DHT22;8072;52.554;7.966;2022-11-20T03:29:40;-1.60;99.90
15947;DHT22;8072;52.554;7.966;2022-11-20T03:32:06;-1.60;99.90
15947;DHT22;8072;52.554;7.966;2022-11-20T03:34:32;-1.50;99.90
15947;DHT22;8072;52.554;7.966;2022-11-20T03:36:58;-1.50;99.90
15947;DHT22;8072;52.554;7.966;2022-11-20T03:39:24;-1.40;99.90
15947;DHT22;8072;52.554;7.966;2022-11-20T03:41:50;-1.40;99.90
15947;DHT22;8072;52.554;7.966;2022-11-20T03:44:15;-1.40;99.90
15947;DHT22;8072;52.554;7.966;2022-11-20T03:46:41;-1.30;99.90
15947;DHT22;8072;52.554;7.966;2022-11-20T03:49:13;-1.30;99.90
15947;DHT22;8072;52.554;7.966;2022-11-20T03:51:38;-1.30;99.90
15947;DHT22;8072;52.554;7.966;2022-11-20T03:54:08;-1.30;99.90
15947;DHT22;8072;52.554;7.966;2022-11-20T03:56:36;-1.20;99.90
15947;DHT22;8072;52.554;7.966;2022-11-20T03:59:03;-1.20;99.90
15947;DHT22;8072;52.554;7.966;2022-11-20T04:01:33;-1.20;99.90
15947;DHT22;8072;52.554;7.966;2022-11-20T04:04:00;-1.20;99.90
15947;DHT22;8072;52.554;7.966;2022-11-20T04:06:30;-1.20;99.90
15947;DHT22;8072;52.554;7.966;2022-11-20T04:08:57;-1.20;99.90
15947;DHT22;8072;52.554;7.966;2022-11-20T04:11:25;-1.20;99.90
15947;DHT22;8072;52.554;7.966;2022-11-20T04:13:54;-1.20;99.90
15947;DHT22;8072;52.554;7.966;2022-11-20T04:16:20;-1.20;99.90
15947;DHT22;8072;52.554;7.966;2022-11-20T04:18:47;-1.20;99.90
15947;DHT22;8072;52.554;7.966;2022-11-20T04:21:15;-1.20;99.90
15947;DHT22;8072;52.554;7.966;2022-11-20T04:23:40;-1.20;99.90
15947;DHT22;8072;52.554;7.966;2022-11-20T04:26:08;-1.20;99.90
15947;DHT22;8072;52.554;7.966;2022-11-20T04:28:35;-1.20;99.90
15947;DHT22;8072;52.554;7.966;2022-11-20T04:31:12;-1.20;99.90
15947;DHT22;8072;52.554;7.966;2022-11-20T04:33:38;-1.20;99.90
15947;DHT22;8072;52.554;7.966;2022-11-20T04:36:19;-1.20;99.90
15947;DHT22;8072;52.554;7.966;2022-11-20T04:38:46;-1.20;99.90
15947;DHT22;8072;52.554;7.966;2022-11-20T04:41:19;-1.20;99.90
15947;DHT22;8072;52.554;7.966;2022-11-20T04:43:49;-1.20;99.90
15947;DHT22;8072;52.554;7.966;2022-11-20T04:46:20;-1.10;99.90
15947;DHT22;8072;52.554;7.966;2022-11-20T04:48:47;-1.10;99.90
15947;DHT22;8072;52.554;7.966;2022-11-20T04:51:13;-1.10;99.90
15947;DHT22;8072;52.554;7.966;2022-11-20T04:53:39;-1.10;99.90
15947;DHT22;8072;52.554;7.966;2022-11-20T04:56:07;-1.10;99.90
15947;DHT22;8072;52.554;7.966;2022-11-20T04:58:34;-1.00;99.90
15947;DHT22;8072;52.554;7.966;2022-11-20T05:01:14;-1.00;99.90
15947;DHT22;8072;52.554;7.966;2022-11-20T05:03:42;-1.10;99.90
15947;DHT22;8072;52.554;7.966;2022-11-20T05:06:09;-1.10;99.90
15947;DHT22;8072;52.554;7.966;2022-11-20T05:08:36;-1.10;99.90
15947;DHT22;8072;52.554;7.966;2022-11-20T05:11:10;-1.10;99.90
15947;DHT22;8072;52.554;7.966;2022-11-20T05:13:37;-1.00;99.90
15947;DHT22;8072;52.554;7.966;2022-11-20T05:16:37;-1.10;99.90
15947;DHT22;8072;52.554;7.966;2022-11-20T05:18:57;-1.00;99.90
15947;DHT22;8072;52.554;7.966;2022-11-20T05:21:23;-1.00;99.90
15947;DHT22;8072;52.554;7.966;2022-11-20T05:23:48;-1.00;99.90
15947;DHT22;8072;52.554;7.966;2022-11-20T05:26:22;-1.00;99.90
15947;DHT22;8072;52.554;7.966;2022-11-20T05:28:49;-1.00;99.90
15947;DHT22;8072;52.554;7.966;2022-11-20T05:31:19;-1.00;99.90
15947;DHT22;8072;52.554;7.966;2022-11-20T05:33:45;-1.00;99.90
15947;DHT22;8072;52.554;7.966;2022-11-20T05:36:13;-1.00;99.90
15947;DHT22;8072;52.554;7.966;2022-11-20T05:38:40;-1.10;99.90
15947;DHT22;8072;52.554;7.966;2022-11-20T05:43:35;-1.10;99.90
15947;DHT22;8072;52.554;7.966;2022-11-20T05:46:02;-1.20;99.90
15947;DHT22;8072;52.554;7.966;2022-11-20T05:48:27;-1.30;99.90
15947;DHT22;8072;52.554;7.966;2022-11-20T05:50:53;-1.30;99.90
15947;DHT22;8072;52.554;7.966;2022-11-20T05:53:19;-1.30;99.90
15947;DHT22;8072;52.554;7.966;2022-11-20T05:55:45;-1.30;99.90
15947;DHT22;8072;52.554;7.966;2022-11-20T05:58:11;-1.30;99.90
15947;DHT22;8072;52.554;7.966;2022-11-20T06:00:37;-1.30;99.90
15947;DHT22;8072;52.554;7.966;2022-11-20T06:03:03;-1.30;99.90
15947;DHT22;8072;52.554;7.966;2022-11-20T06:05:29;-1.20;99.90
15947;DHT22;8072;52.554;7.966;2022-11-20T06:07:54;-1.20;99.90
15947;DHT22;8072;52.554;7.966;2022-11-20T06:10:20;-1.20;99.90
15947;DHT22;8072;52.554;7.966;2022-11-20T06:12:46;-1.10;99.90
15947;DHT22;8072;52.554;7.966;2022-11-20T06:15:12;-1.10;99.90
15947;DHT22;8072;52.554;7.966;2022-11-20T06:17:38;-1.10;99.90
15947;DHT22;8072;52.554;7.966;2022-11-20T06:20:04;-1.10;99.90
15947;DHT22;8072;52.554;7.966;2022-11-20T06:22:32;-1.10;99.90
15947;DHT22;8072;52.554;7.966;2022-11-20T06:24:57;-1.10;99.90
15947;DHT22;8072;52.554;7.966;2022-11-20T06:27:23;-1.00;99.90
15947;DHT22;8072;52.554;7.966;2022-11-20T06:29:49;-1.00;99.90
15947;DHT22;8072;52.554;7.966;2022-11-20T06:32:15;-1.00;99.90
15947;DHT22;8072;52.554;7.966;2022-11-20T06:34:41;-1.00;99.90
15947;DHT22;8072;52.554;7.966;2022-11-20T06:37:07;-1.00;99.90
15947;DHT22;8072;52.554;7.966;2022-11-20T06:39:32;-1.00;99.90
15947;DHT22;8072;52.554;7.966;2022-11-20T06:41:58;-1.00;99.90
15947;DHT22;8072;52.554;7.966;2022-11-20T06:44:24;-1.00;99.90
15947;DHT22;8072;52.554;7.966;2022-11-20T06:46:50;-1.00;99.90
15947;DHT22;8072;52.554;7.966;2022-11-20T06:49:16;-0.90;99.90
15947;DHT22;8072;52.554;7.966;2022-11-20T06:51:41;-0.90;99.90
15947;DHT22;8072;52.554;7.966;2022-11-20T06:54:07;-0.90;99.90
15947;DHT22;8072;52.554;7.966;2022-11-20T06:56:33;-0.90;99.90
15947;DHT22;8072;52.554;7.966;2022-11-20T06:59:04;-0.90;99.90
15947;DHT22;8072;52.554;7.966;2022-11-20T07:01:30;-0.90;99.90
15947;DHT22;8072;52.554;7.966;2022-11-20T07:03:56;-0.90;99.90
15947;DHT22;8072;52.554;7.966;2022-11-20T07:06:21;-0.90;99.90
15947;DHT22;8072;52.554;7.966;2022-11-20T07:08:47;-0.90;99.90
15947;DHT22;8072;52.554;7.966;2022-11-20T07:11:15;-0.90;99.90
15947;DHT22;8072;52.554;7.966;2022-11-20T07:13:41;-0.90;99.90
15947;DHT22;8072;52.554;7.966;2022-11-20T07:16:07;-0.90;99.90
15947;DHT22;8072;52.554;7.966;2022-11-20T07:18:34;-0.80;99.90
15947;DHT22;8072;52.554;7.966;2022-11-20T07:21:04;-0.90;99.90
15947;DHT22;8072;52.554;7.966;2022-11-20T07:23:31;-0.90;99.90
15947;DHT22;8072;52.554;7.966;2022-11-20T07:25:57;-1.00;99.90
15947;DHT22;8072;52.554;7.966;2022-11-20T07:28:22;-1.00;99.90
15947;DHT22;8072;52.554;7.966;2022-11-20T07:30:52;-1.00;99.90
15947;DHT22;8072;52.554;7.966;2022-11-20T07:33:19;-1.10;99.90
15947;DHT22;8072;52.554;7.966;2022-11-20T07:35:45;-1.10;99.90
15947;DHT22;8072;52.554;7.966;2022-11-20T07:38:10;-1.10;99.90
15947;DHT22;8072;52.554;7.966;2022-11-20T07:40:36;-1.10;99.90
15947;DHT22;8072;52.554;7.966;2022-11-20T07:43:02;-1.00;99.90
15947;DHT22;8072;52.554;7.966;2022-11-20T07:45:28;-1.00;99.90
15947;DHT22;8072;52.554;7.966;2022-11-20T07:47:54;-1.00;99.90
15947;DHT22;8072;52.554;7.966;2022-11-20T07:50:20;-0.90;99.90
15947;DHT22;8072;52.554;7.966;2022-11-20T07:52:46;-0.90;99.90
15947;DHT22;8072;52.554;7.966;2022-11-20T07:55:11;-0.90;99.90
15947;DHT22;8072;52.554;7.966;2022-11-20T07:57:37;-0.80;99.90
15947;DHT22;8072;52.554;7.966;2022-11-20T08:00:05;-0.80;99.90
15947;DHT22;8072;52.554;7.966;2022-11-20T08:02:32;-0.80;99.90
15947;DHT22;8072;52.554;7.966;2022-11-20T08:04:58;-0.70;99.90
15947;DHT22;8072;52.554;7.966;2022-11-20T08:07:23;-0.70;99.90
15947;DHT22;8072;52.554;7.966;2022-11-20T08:09:49;-0.70;99.90
15947;DHT22;8072;52.554;7.966;2022-11-20T08:12:18;-0.70;99.90
15947;DHT22;8072;52.554;7.966;2022-11-20T08:15:04;-0.70;99.90
15947;DHT22;8072;52.554;7.966;2022-11-20T08:17:30;-0.70;99.90
15947;DHT22;8072;52.554;7.966;2022-11-20T08:19:56;-0.70;99.90
15947;DHT22;8072;52.554;7.966;2022-11-20T08:22:22;-0.70;99.90
15947;DHT22;8072;52.554;7.966;2022-11-20T08:24:47;-0.70;99.90
15947;DHT22;8072;52.554;7.966;2022-11-20T08:27:13;-0.70;99.90
15947;DHT22;8072;52.554;7.966;2022-11-20T08:29:39;-0.70;99.90
15947;DHT22;8072;52.554;7.966;2022-11-20T08:32:05;-0.70;99.90
15947;DHT22;8072;52.554;7.966;2022-11-20T08:34:31;-0.60;99.90
15947;DHT22;8072;52.554;7.966;2022-11-20T08:36:56;-0.70;99.90
15947;DHT22;8072;52.554;7.966;2022-11-20T08:39:22;-0.60;99.90
15947;DHT22;8072;52.554;7.966;2022-11-20T08:41:48;-0.60;99.90
15947;DHT22;8072;52.554;7.966;2022-11-20T08:44:14;-0.60;99.90
15947;DHT22;8072;52.554;7.966;2022-11-20T08:46:41;-0.50;99.90
15947;DHT22;8072;52.554;7.966;2022-11-20T08:49:11;-0.50;99.90
15947;DHT22;8072;52.554;7.966;2022-11-20T08:51:38;-0.50;99.90
15947;DHT22;8072;52.554;7.966;2022-11-20T08:54:04;-0.50;99.90
15947;DHT22;8072;52.554;7.966;2022-11-20T08:56:30;-0.40;99.90
15947;DHT22;8072;52.554;7.966;2022-11-20T08:58:56;-0.40;99.90
15947;DHT22;8072;52.554;7.966;2022-11-20T09:01:23;-0.30;99.90
15947;DHT22;8072;52.554;7.966;2022-11-20T09:03:49;-0.30;99.90
15947;DHT22;8072;52.554;7.966;2022-11-20T09:06:15;-0.20;99.90
15947;DHT22;8072;52.554;7.966;2022-11-20T09:08:41;-0.20;99.90
15947;DHT22;8072;52.554;7.966;2022-11-20T09:11:08;-0.20;99.90
15947;DHT22;8072;52.554;7.966;2022-11-20T09:13:35;-0.20;99.90
15947;DHT22;8072;52.554;7.966;2022-11-20T09:16:06;-0.20;99.90
15947;DHT22;8072;52.554;7.966;2022-11-20T09:18:33;-0.20;99.90
15947;DHT22;8072;52.554;7.966;2022-11-20T09:21:04;-0.20;99.90
15947;DHT22;8072;52.554;7.966;2022-11-20T09:23:35;-0.20;99.90
15947;DHT22;8072;52.554;7.966;2022-11-20T09:26:05;-0.10;99.90
15947;DHT22;8072;52.554;7.966;2022-11-20T09:28:31;-0.10;99.90
15947;DHT22;8072;52.554;7.966;2022-11-20T09:30:57;-0.10;99.90
15947;DHT22;8072;52.554;7.966;2022-11-20T09:33:23;0.00;99.90
15947;DHT22;8072;52.554;7.966;2022-11-20T09:35:49;0.10;99.90
15947;DHT22;8072;52.554;7.966;2022-11-20T09:38:15;0.10;99.90
15947;DHT22;8072;52.554;7.966;2022-11-20T09:40:47;0.10;99.90
15947;DHT22;8072;52.554;7.966;2022-11-20T09:54:18;0.20;99.90
15947;DHT22;8072;52.554;7.966;2022-11-20T09:56:54;0.20;99.90
15947;DHT22;8072;52.554;7.966;2022-11-20T10:02:00;0.20;99.90
15947;DHT22;8072;52.554;7.966;2022-11-20T10:04:30;0.20;99.90
15947;DHT22;8072;52.554;7.966;2022-11-20T10:07:13;0.30;99.90
15947;DHT22;8072;52.554;7.966;2022-11-20T10:09:49;0.30;99.90
15947;DHT22;8072;52.554;7.966;2022-11-20T10:12:25;0.30;99.90
15947;DHT22;8072;52.554;7.966;2022-11-20T10:27:13;0.20;99.90
15947;DHT22;8072;52.554;7.966;2022-11-20T10:29:18;0.20;99.90
15947;DHT22;8072;52.554;7.966;2022-11-20T10:32:30;0.30;99.90
15947;DHT22;8072;52.554;7.966;2022-11-20T10:37:32;0.50;99.90
15947;DHT22;8072;52.554;7.966;2022-11-20T10:47:39;0.70;99.90
15947;DHT22;8072;52.554;7.966;2022-11-20T10:50:11;0.80;99.90
15947;DHT22;8072;52.554;7.966;2022-11-20T11:00:44;0.70;99.90
15947;DHT22;8072;52.554;7.966;2022-11-20T11:03:22;0.70;99.90
15947;DHT22;8072;52.554;7.966;2022-11-20T11:05:54;0.70;99.90
15947;DHT22;8072;52.554;7.966;2022-11-20T11:08:23;0.90;99.90
15947;DHT22;8072;52.554;7.966;2022-11-20T11:10:54;1.00;99.90
15947;DHT22;8072;52.554;7.966;2022-11-20T11:13:24;1.10;99.90
15947;DHT22;8072;52.554;7.966;2022-11-20T11:15:50;1.10;99.90
15947;DHT22;8072;52.554;7.966;2022-11-20T11:18:30;1.20;99.90
15947;DHT22;8072;52.554;7.966;2022-11-20T11:20:59;1.40;99.90
15947;DHT22;8072;52.554;7.966;2022-11-20T11:26:01;1.60;99.90
15947;DHT22;8072;52.554;7.966;2022-11-20T11:28:28;1.70;99.90
15947;DHT22;8072;52.554;7.966;2022-11-20T11:30:54;1.90;99.90
15947;DHT22;8072;52.554;7.966;2022-11-20T11:33:26;2.20;99.90
15947;DHT22;8072;52.554;7.966;2022-11-20T11:38:41;2.90;99.90
15947;DHT22;8072;52.554;7.966;2022-11-20T11:41:23;3.10;99.90
15947;DHT22;8072;52.554;7.966;2022-11-20T11:44:14;3.10;99.90
15947;DHT22;8072;52.554;7.966;2022-11-20T11:47:00;3.20;99.90
15947;DHT22;8072;52.554;7.966;2022-11-20T11:49:26;3.10;99.90
15947;DHT22;8072;52.554;7.966;2022-11-20T11:52:20;2.90;99.90
15947;DHT22;8072;52.554;7.966;2022-11-20T11:55:09;2.70;99.90
15947;DHT22;8072;52.554;7.966;2022-11-20T11:57:47;2.60;99.90
15947;DHT22;8072;52.554;7.966;2022-11-20T12:00:20;2.50;99.90
15947;DHT22;8072;52.554;7.966;2022-11-20T12:15:50;2.70;99.90
15947;DHT22;8072;52.554;7.966;2022-11-20T12:18:20;2.80;99.90
15947;DHT22;8072;52.554;7.966;2022-11-20T12:21:17;2.80;99.90
15947;DHT22;8072;52.554;7.966;2022-11-20T12:24:32;2.90;99.90
15947;DHT22;8072;52.554;7.966;2022-11-20T12:40:35;3.10;99.90
15947;DHT22;8072;52.554;7.966;2022-11-20T12:48:58;2.90;99.90
15947;DHT22;8072;52.554;7.966;2022-11-20T12:59:52;3.10;99.90
15947;DHT22;8072;52.554;7.966;2022-11-20T13:02:36;3.20;99.90
15947;DHT22;8072;52.554;7.966;2022-11-20T13:05:24;3.20;99.90
15947;DHT22;8072;52.554;7.966;2022-11-20T13:07:53;3.40;99.90
15947;DHT22;8072;52.554;7.966;2022-11-20T13:10:39;3.50;99.90
15947;DHT22;8072;52.554;7.966;2022-11-20T13:13:16;3.60;99.90
15947;DHT22;8072;52.554;7.966;2022-11-20T13:18:41;3.70;99.90
15947;DHT22;8072;52.554;7.966;2022-11-20T13:21:19;3.70;99.90
15947;DHT22;8072;52.554;7.966;2022-11-20T13:23:46;3.70;99.90
15947;DHT22;8072;52.554;7.966;2022-11-20T13:26:21;3.70;99.90
15947;DHT22;8072;52.554;7.966;2022-11-20T13:28:59;3.80;99.90
15947;DHT22;8072;52.554;7.966;2022-11-20T13:31:33;3.80;99.90
15947;DHT22;8072;52.554;7.966;2022-11-20T13:34:02;3.80;99.90
15947;DHT22;8072;52.554;7.966;2022-11-20T13:36:29;3.80;99.90
15947;DHT22;8072;52.554;7.966;2022-11-20T13:38:57;3.80;99.90
15947;DHT22;8072;52.554;7.966;2022-11-20T13:41:35;3.70;99.90
15947;DHT22;8072;52.554;7.966;2022-11-20T13:46:39;3.50;99.90
15947;DHT22;8072;52.554;7.966;2022-11-20T13:49:32;3.50;99.90
15947;DHT22;8072;52.554;7.966;2022-11-20T14:00:16;3.30;99.90
15947;DHT22;8072;52.554;7.966;2022-11-20T14:02:44;3.30;99.90
15947;DHT22;8072;52.554;7.966;2022-11-20T14:05:38;3.30;99.90
15947;DHT22;8072;52.554;7.966;2022-11-20T14:08:09;3.30;99.90
15947;DHT22;8072;52.554;7.966;2022-11-20T14:10:38;3.20;99.90
15947;DHT22;8072;52.554;7.966;2022-11-20T14:13:17;3.20;99.90
15947;DHT22;8072;52.554;7.966;2022-11-20T14:15:43;3.20;99.90
15947;DHT22;8072;52.554;7.966;2022-11-20T14:18:21;3.10;99.90
15947;DHT22;8072;52.554;7.966;2022-11-20T14:20:47;3.00;99.90
15947;DHT22;8072;52.554;7.966;2022-11-20T14:23:23;2.90;99.90
15947;DHT22;8072;52.554;7.966;2022-11-20T14:25:50;2.90;99.90
15947;DHT22;8072;52.554;7.966;2022-11-20T14:28:33;2.80;99.90
15947;DHT22;8072;52.554;7.966;2022-11-20T14:30:59;2.80;99.90
15947;DHT22;8072;52.554;7.966;2022-11-20T14:33:26;2.80;99.90
15947;DHT22;8072;52.554;7.966;2022-11-20T14:35:57;2.70;99.90
15947;DHT22;8072;52.554;7.966;2022-11-20T14:38:28;2.70;99.90
15947;DHT22;8072;52.554;7.966;2022-11-20T14:40:54;2.70;99.90
15947;DHT22;8072;52.554;7.966;2022-11-20T14:43:25;2.60;99.90
15947;DHT22;8072;52.554;7.966;2022-11-20T14:46:02;2.60;99.90
15947;DHT22;8072;52.554;7.966;2022-11-20T14:48:41;2.60;99.90
15947;DHT22;8072;52.554;7.966;2022-11-20T14:51:10;2.60;99.90
15947;DHT22;8072;52.554;7.966;2022-11-20T14:53:36;2.60;99.90
15947;DHT22;8072;52.554;7.966;2022-11-20T14:56:02;2.60;99.90
15947;DHT22;8072;52.554;7.966;2022-11-20T14:58:33;2.50;99.90
15947;DHT22;8072;52.554;7.966;2022-11-20T15:01:02;2.50;99.90
15947;DHT22;8072;52.554;7.966;2022-11-20T15:03:33;2.40;99.90
15947;DHT22;8072;52.554;7.966;2022-11-20T15:06:00;2.30;99.90
15947;DHT22;8072;52.554;7.966;2022-11-20T15:08:26;2.20;99.90
15947;DHT22;8072;52.554;7.966;2022-11-20T15:10:53;2.20;99.90
15947;DHT22;8072;52.554;7.966;2022-11-20T15:13:26;2.20;99.90
15947;DHT22;8072;52.554;7.966;2022-11-20T15:15:56;2.20;99.90
15947;DHT22;8072;52.554;7.966;2022-11-20T15:20:56;2.10;99.90
15947;DHT22;8072;52.554;7.966;2022-11-20T15:23:23;2.10;99.90
15947;DHT22;8072;52.554;7.966;2022-11-20T15:25:49;2.10;99.90
15947;DHT22;8072;52.554;7.966;2022-11-20T15:28:21;2.10;99.90
15947;DHT22;8072;52.554;7.966;2022-11-20T15:30:49;2.10;99.90
15947;DHT22;8072;52.554;7.966;2022-11-20T15:33:16;2.10;99.90
15947;DHT22;8072;52.554;7.966;2022-11-20T15:35:42;2.10;99.90
15947;DHT22;8072;52.554;7.966;2022-11-20T15:38:08;2.10;99.90
15947;DHT22;8072;52.554;7.966;2022-11-20T15:40:34;2.10;99.90
15947;DHT22;8072;52.554;7.966;2022-11-20T15:43:00;2.10;99.90
15947;DHT22;8072;52.554;7.966;2022-11-20T15:45:34;2.10;99.90
15947;DHT22;8072;52.554;7.966;2022-11-20T15:48:02;2.00;99.90
15947;DHT22;8072;52.554;7.966;2022-11-20T15:50:35;2.00;99.90
15947;DHT22;8072;52.554;7.966;2022-11-20T15:53:02;2.00;99.90
15947;DHT22;8072;52.554;7.966;2022-11-20T15:55:27;2.00;99.90
15947;DHT22;8072;52.554;7.966;2022-11-20T15:57:53;1.90;99.90
15947;DHT22;8072;52.554;7.966;2022-11-20T16:00:19;1.90;99.90
15947;DHT22;8072;52.554;7.966;2022-11-20T16:02:45;1.90;99.90
15947;DHT22;8072;52.554;7.966;2022-11-20T16:05:12;1.90;99.90
15947;DHT22;8072;52.554;7.966;2022-11-20T16:07:39;1.90;99.90
15947;DHT22;8072;52.554;7.966;2022-11-20T16:10:05;1.80;99.90
15947;DHT22;8072;52.554;7.966;2022-11-20T16:12:30;1.80;99.90
15947;DHT22;8072;52.554;7.966;2022-11-20T16:15:15;1.80;99.90
15947;DHT22;8072;52.554;7.966;2022-11-20T16:17:59;1.80;99.90
15947;DHT22;8072;52.554;7.966;2022-11-20T16:20:25;1.80;99.90
15947;DHT22;8072;52.554;7.966;2022-11-20T16:22:51;1.80;99.90
15947;DHT22;8072;52.554;7.966;2022-11-20T16:25:17;1.80;99.90
15947;DHT22;8072;52.554;7.966;2022-11-20T16:27:42;1.70;99.90
15947;DHT22;8072;52.554;7.966;2022-11-20T16:30:09;1.70;99.90
15947;DHT22;8072;52.554;7.966;2022-11-20T16:32:35;1.70;99.90
15947;DHT22;8072;52.554;7.966;2022-11-20T16:35:01;1.70;99.90
15947;DHT22;8072;52.554;7.966;2022-11-20T16:37:27;1.60;99.90
15947;DHT22;8072;52.554;7.966;2022-11-20T16:39:53;1.60;99.90
15947;DHT22;8072;52.554;7.966;2022-11-20T16:42:19;1.60;99.90
15947;DHT22;8072;52.554;7.966;2022-11-20T16:44:45;1.60;99.90
15947;DHT22;8072;52.554;7.966;2022-11-20T16:47:12;1.60;99.90
15947;DHT22;8072;52.554;7.966;2022-11-20T16:49:37;1.60;99.90
15947;DHT22;8072;52.554;7.966;2022-11-20T16:52:03;1.60;99.90
15947;DHT22;8072;52.554;7.966;2022-11-20T16:54:29;1.60;99.90
15947;DHT22;8072;52.554;7.966;2022-11-20T16:56:55;1.70;99.90
15947;DHT22;8072;52.554;7.966;2022-11-20T16:59:23;1.60;99.90
15947;DHT22;8072;52.554;7.966;2022-11-20T17:01:49;1.60;99.90
15947;DHT22;8072;52.554;7.966;2022-11-20T17:04:16;1.60;99.90
15947;DHT22;8072;52.554;7.966;2022-11-20T17:06:43;1.60;99.90
15947;DHT22;8072;52.554;7.966;2022-11-20T17:09:10;1.60;99.90
15947;DHT22;8072;52.554;7.966;2022-11-20T17:11:38;1.60;99.90
15947;DHT22;8072;52.554;7.966;2022-11-20T17:14:06;1.50;99.90
15947;DHT22;8072;52.554;7.966;2022-11-20T17:16:34;1.50;99.90
15947;DHT22;8072;52.554;7.966;2022-11-20T17:19:00;1.60;99.90
15947;DHT22;8072;52.554;7.966;2022-11-20T17:21:27;1.60;99.90
15947;DHT22;8072;52.554;7.966;2022-11-20T17:24:00;1.60;99.90
15947;DHT22;8072;52.554;7.966;2022-11-20T17:26:28;1.70;99.90
15947;DHT22;8072;52.554;7.966;2022-11-20T17:29:00;1.70;99.90
15947;DHT22;8072;52.554;7.966;2022-11-20T17:31:28;1.70;99.90
15947;DHT22;8072;52.554;7.966;2022-11-20T17:33:54;1.70;99.90
15947;DHT22;8072;52.554;7.966;2022-11-20T17:36:20;1.70;99.90
15947;DHT22;8072;52.554;7.966;2022-11-20T17:38:46;1.70;99.90
15947;DHT22;8072;52.554;7.966;2022-11-20T17:41:15;1.70;99.90
15947;DHT22;8072;52.554;7.966;2022-11-20T17:43:42;1.70;99.90
15947;DHT22;8072;52.554;7.966;2022-11-20T17:46:16;1.70;99.90
15947;DHT22;8072;52.554;7.966;2022-11-20T17:48:44;1.70;99.90
15947;DHT22;8072;52.554;7.966;2022-11-20T17:51:24;1.70;99.90
15947;DHT22;8072;52.554;7.966;2022-11-20T17:53:51;1.70;99.90
15947;DHT22;8072;52.554;7.966;2022-11-20T17:56:18;1.70;99.90